Time;durP1;ratioP1;P1;durP2;ratioP2;P2;SDS_P1;SDS_P2;PMS_P1;PMS_P2;Temp;Humidity;BMP_temperature;BMP_pressure;BME280_temperature;BME280_humidity;BME280_pressure;Samples;Min_cycle;Max_cycle;Signal;HPM_P1;HPM_P2
2022/11/12 00:01:07;;;;;;;18.15;14.05;;;;;;;;;;5121934;27;20039;-80
2022/11/12 00:03:33;;;;;;;18.35;14.07;;;;;;;;;;5095286;27;20085;-80
2022/11/12 00:05:59;;;;;;;20.33;14.15;;;;;;;;;;5087225;27;20451;-79
2022/11/12 00:08:25;;;;;;;22.25;13.85;;;;;;;;;;5105205;27;20050;-80
2022/11/12 00:10:51;;;;;;;18.58;15.40;;;;;;;;;;5086534;27;20177;-80
2022/11/12 00:13:17;;;;;;;20.38;14.30;;;;;;;;;;5107425;27;20059;-80
2022/11/12 00:15:44;;;;;;;24.63;15.60;;;;;;;;;;5095886;27;20631;-80
2022/11/12 00:18:10;;;;;;;20.20;15.20;;;;;;;;;;5103590;27;20391;-80
2022/11/12 00:20:36;;;;;;;23.00;14.80;;;;;;;;;;5106521;27;20055;-80
2022/11/12 00:23:02;;;;;;;23.17;15.25;;;;;;;;;;5123568;27;20059;-80
2022/11/12 00:25:29;;;;;;;25.60;16.00;;;;;;;;;;5109101;27;20039;-80
2022/11/12 00:28:00;;;;;;;28.48;16.95;;;;;;;;;;5104032;27;20042;-80
2022/11/12 00:30:29;;;;;;;25.83;16.77;;;;;;;;;;5124322;27;20047;-79
2022/11/12 00:32:55;;;;;;;24.38;16.58;;;;;;;;;;5130508;27;20047;-79
2022/11/12 00:35:21;;;;;;;23.55;15.70;;;;;;;;;;5097129;27;20051;-79
2022/11/12 00:37:47;;;;;;;25.00;17.25;;;;;;;;;;5091184;27;20050;-80
2022/11/12 00:40:15;;;;;;;26.98;16.83;;;;;;;;;;5111758;27;20863;-80
2022/11/12 00:42:41;;;;;;;27.27;17.48;;;;;;;;;;5113371;27;20200;-80
2022/11/12 00:45:08;;;;;;;27.13;16.92;;;;;;;;;;5111486;27;20031;-79
2022/11/12 00:47:34;;;;;;;24.95;17.10;;;;;;;;;;5112501;27;20043;-80
2022/11/12 00:50:00;;;;;;;25.95;17.52;;;;;;;;;;5114073;27;20514;-80
2022/11/12 00:52:26;;;;;;;28.00;17.30;;;;;;;;;;5108549;27;20100;-80
2022/11/12 00:54:52;;;;;;;28.73;17.40;;;;;;;;;;5097563;27;20039;-80
2022/11/12 00:57:18;;;;;;;26.42;17.92;;;;;;;;;;5099082;27;20398;-79
2022/11/12 00:59:44;;;;;;;26.10;17.52;;;;;;;;;;5086420;27;20043;-80
2022/11/12 01:02:10;;;;;;;25.33;17.13;;;;;;;;;;5082919;27;20487;-80
2022/11/12 01:04:36;;;;;;;25.05;16.70;;;;;;;;;;5087815;28;20085;-79
2022/11/12 01:07:02;;;;;;;25.48;17.45;;;;;;;;;;5103687;27;20044;-80
2022/11/12 01:09:28;;;;;;;24.02;17.40;;;;;;;;;;5084241;28;20961;-80
2022/11/12 01:11:57;;;;;;;27.25;16.77;;;;;;;;;;5103777;27;22203;-80
2022/11/12 01:14:23;;;;;;;24.85;17.17;;;;;;;;;;5085159;28;20050;-80
2022/11/12 01:16:49;;;;;;;27.58;16.48;;;;;;;;;;5085860;28;20043;-80
2022/11/12 01:19:15;;;;;;;25.58;16.05;;;;;;;;;;5093407;28;20039;-80
2022/11/12 01:21:42;;;;;;;25.77;16.65;;;;;;;;;;5109291;27;20043;-80
2022/11/12 01:24:09;;;;;;;22.30;16.35;;;;;;;;;;5111088;27;20046;-80
2022/11/12 01:26:35;;;;;;;22.05;15.55;;;;;;;;;;5090843;28;20095;-80
2022/11/12 01:29:01;;;;;;;23.80;15.48;;;;;;;;;;5091307;28;20048;-80
2022/11/12 01:31:28;;;;;;;21.48;16.15;;;;;;;;;;5107296;28;20051;-80
2022/11/12 01:33:56;;;;;;;20.88;15.77;;;;;;;;;;5106650;28;20051;-80
2022/11/12 01:36:22;;;;;;;22.73;15.40;;;;;;;;;;5103812;28;20043;-80
2022/11/12 01:38:48;;;;;;;21.70;15.52;;;;;;;;;;5090867;28;20079;-80
2022/11/12 01:41:22;;;;;;;21.67;16.60;;;;;;;;;;5108909;27;20067;-80
2022/11/12 01:43:48;;;;;;;25.63;16.08;;;;;;;;;;5094845;28;20479;-80
2022/11/12 01:46:19;;;;;;;20.90;14.38;;;;;;;;;;5116306;28;20041;-80
2022/11/12 01:48:50;;;;;;;20.30;14.10;;;;;;;;;;5112879;28;20183;-80
2022/11/12 01:51:16;;;;;;;19.88;14.75;;;;;;;;;;5100714;28;20047;-80
2022/11/12 01:53:46;;;;;;;20.08;15.30;;;;;;;;;;5094833;28;20032;-80
2022/11/12 01:56:13;;;;;;;19.85;14.50;;;;;;;;;;5109961;28;20047;-80
2022/11/12 01:58:39;;;;;;;21.08;14.75;;;;;;;;;;5093585;28;20058;-79
2022/11/12 02:01:05;;;;;;;20.70;15.18;;;;;;;;;;5092418;28;20254;-80
2022/11/12 02:03:34;;;;;;;19.92;15.48;;;;;;;;;;5092605;28;20420;-80
2022/11/12 02:06:05;;;;;;;20.88;15.23;;;;;;;;;;5090170;27;20034;-79
2022/11/12 02:08:32;;;;;;;17.85;14.35;;;;;;;;;;5091094;27;20074;-80
2022/11/12 02:10:58;;;;;;;20.33;14.63;;;;;;;;;;5094933;27;20066;-80
2022/11/12 02:16:10;;;;;;;21.35;14.30;;;;;;;;;;5096788;27;20039;-80
2022/11/12 02:18:36;;;;;;;17.83;14.77;;;;;;;;;;5096611;27;20100;-80
2022/11/12 02:21:07;;;;;;;19.17;14.07;;;;;;;;;;5125698;27;20475;-80
2022/11/12 02:23:33;;;;;;;18.38;13.73;;;;;;;;;;5101361;27;20043;-80
2022/11/12 02:26:00;;;;;;;17.73;13.80;;;;;;;;;;5098463;27;20039;-80
2022/11/12 02:28:26;;;;;;;20.38;13.90;;;;;;;;;;5096384;27;20084;-80
2022/11/12 02:30:52;;;;;;;19.02;13.38;;;;;;;;;;5096775;27;20054;-80
2022/11/12 02:33:18;;;;;;;16.27;13.25;;;;;;;;;;5096243;27;20697;-80
2022/11/12 02:35:45;;;;;;;19.55;13.20;;;;;;;;;;5093697;27;20058;-80
2022/11/12 02:38:11;;;;;;;16.35;13.43;;;;;;;;;;5116200;27;20048;-80
2022/11/12 02:40:37;;;;;;;17.27;13.45;;;;;;;;;;5114745;27;20042;-80
2022/11/12 02:43:03;;;;;;;16.17;13.88;;;;;;;;;;5114875;27;20466;-80
2022/11/12 02:45:30;;;;;;;19.55;13.57;;;;;;;;;;5097071;27;20054;-80
2022/11/12 02:47:57;;;;;;;19.17;13.68;;;;;;;;;;5095594;27;20646;-80
2022/11/12 02:50:25;;;;;;;18.23;13.48;;;;;;;;;;5097115;27;20055;-80
2022/11/12 02:52:51;;;;;;;18.48;12.68;;;;;;;;;;5094203;27;20070;-80
2022/11/12 02:55:18;;;;;;;17.08;13.63;;;;;;;;;;5100945;27;20063;-80
2022/11/12 02:57:44;;;;;;;20.50;13.32;;;;;;;;;;5093296;27;20058;-80
2022/11/12 03:00:11;;;;;;;18.63;13.27;;;;;;;;;;5095854;27;20035;-80
2022/11/12 03:02:57;;;;;;;21.38;14.43;;;;;;;;;;5112486;27;20054;-80
2022/11/12 03:05:26;;;;;;;22.42;14.65;;;;;;;;;;5114699;27;20494;-80
2022/11/12 03:07:56;;;;;;;19.08;13.93;;;;;;;;;;5111238;27;20042;-80
2022/11/12 03:10:22;;;;;;;23.55;15.73;;;;;;;;;;5096976;27;20163;-80
2022/11/12 03:12:48;;;;;;;24.65;15.57;;;;;;;;;;5111357;27;20043;-79
2022/11/12 03:15:16;;;;;;;23.60;15.95;;;;;;;;;;5096011;27;20039;-80
2022/11/12 03:17:42;;;;;;;27.55;16.55;;;;;;;;;;5097428;27;20063;-80
2022/11/12 03:20:08;;;;;;;27.58;16.50;;;;;;;;;;5104376;27;20086;-80
2022/11/12 03:22:34;;;;;;;22.38;16.13;;;;;;;;;;5117378;27;20035;-80
2022/11/12 03:25:00;;;;;;;26.48;16.30;;;;;;;;;;5129691;27;20042;-80
2022/11/12 03:27:26;;;;;;;24.85;16.75;;;;;;;;;;5107346;27;20375;-80
2022/11/12 03:29:52;;;;;;;25.65;16.90;;;;;;;;;;5107471;27;20067;-80
2022/11/12 03:32:18;;;;;;;26.20;18.05;;;;;;;;;;5112179;27;20039;-80
2022/11/12 03:34:44;;;;;;;29.10;17.65;;;;;;;;;;5115333;27;20395;-80
2022/11/12 03:37:10;;;;;;;25.67;17.30;;;;;;;;;;5107684;27;20398;-80
2022/11/12 03:39:36;;;;;;;32.85;19.02;;;;;;;;;;5095271;27;20031;-80
2022/11/12 03:42:03;;;;;;;32.85;20.92;;;;;;;;;;5096293;27;20395;-80
2022/11/12 03:44:29;;;;;;;37.72;20.90;;;;;;;;;;5091259;27;20140;-80
2022/11/12 03:46:55;;;;;;;32.40;19.45;;;;;;;;;;5113233;27;20035;-80
2022/11/12 03:49:24;;;;;;;42.08;22.35;;;;;;;;;;5090457;27;20043;-80
2022/11/12 03:51:50;;;;;;;33.58;22.35;;;;;;;;;;5111089;27;20043;-80
2022/11/12 03:54:16;;;;;;;43.00;23.17;;;;;;;;;;5110650;27;20043;-80
2022/11/12 03:56:42;;;;;;;45.50;24.80;;;;;;;;;;5101377;27;20380;-80
2022/11/12 03:59:08;;;;;;;45.80;24.67;;;;;;;;;;5112595;27;20042;-80
2022/11/12 04:01:34;;;;;;;63.63;25.73;;;;;;;;;;5112782;27;20057;-80
2022/11/12 04:04:00;;;;;;;53.58;25.25;;;;;;;;;;5090673;27;20043;-80
2022/11/12 04:09:10;;;;;;;42.15;27.00;;;;;;;;;;5110084;27;20533;-80
2022/11/12 04:11:36;;;;;;;67.57;26.98;;;;;;;;;;5112856;27;20071;-80
2022/11/12 04:14:02;;;;;;;55.25;26.75;;;;;;;;;;5124508;27;20127;-80
2022/11/12 04:22:08;;;;;;;55.92;27.33;;;;;;;;;;5113959;27;20114;-80
2022/11/12 04:27:21;;;;;;;99.88;27.80;;;;;;;;;;5114913;27;20036;-80
2022/11/12 04:32:34;;;;;;;75.75;27.42;;;;;;;;;;5089608;27;20043;-80
2022/11/12 04:35:00;;;;;;;46.10;23.85;;;;;;;;;;5095290;27;20051;-80
2022/11/12 04:37:43;;;;;;;78.47;25.05;;;;;;;;;;5087385;27;20062;-80
2022/11/12 04:45:50;;;;;;;62.78;23.38;;;;;;;;;;5094529;27;20130;-80
2022/11/12 04:48:16;;;;;;;63.60;23.52;;;;;;;;;;5089972;27;20108;-80
2022/11/12 04:50:44;;;;;;;68.95;21.05;;;;;;;;;;5095153;27;20436;-80
2022/11/12 04:53:10;;;;;;;73.88;21.77;;;;;;;;;;5090422;27;20040;-80
2022/11/12 04:55:36;;;;;;;82.90;22.20;;;;;;;;;;5109026;27;20041;-80
2022/11/12 04:58:02;;;;;;;51.05;20.20;;;;;;;;;;5098025;27;20045;-80
2022/11/12 05:00:28;;;;;;;49.97;20.77;;;;;;;;;;5109223;27;20590;-80
2022/11/12 05:02:57;;;;;;;86.20;22.55;;;;;;;;;;5091245;27;20043;-80
2022/11/12 05:05:23;;;;;;;60.92;21.33;;;;;;;;;;5108263;27;20039;-80
2022/11/12 05:07:49;;;;;;;58.97;21.02;;;;;;;;;;5088255;27;20059;-79
2022/11/12 05:10:16;;;;;;;49.50;20.35;;;;;;;;;;5088028;27;20050;-80
2022/11/12 05:12:43;;;;;;;65.03;21.70;;;;;;;;;;5092406;28;20055;-80
2022/11/12 05:15:10;;;;;;;57.15;22.40;;;;;;;;;;5094419;27;20053;-80
2022/11/12 05:17:36;;;;;;;89.15;24.05;;;;;;;;;;5101320;28;20380;-80
2022/11/12 05:20:02;;;;;;;73.35;25.02;;;;;;;;;;5121041;27;20103;-80
2022/11/12 05:22:28;;;;;;;59.80;23.85;;;;;;;;;;5095153;27;20055;-79
2022/11/12 05:24:54;;;;;;;53.45;22.45;;;;;;;;;;5111037;27;20036;-79
2022/11/12 05:27:21;;;;;;;63.60;23.38;;;;;;;;;;5090259;28;20461;-79
2022/11/12 05:29:47;;;;;;;63.45;24.05;;;;;;;;;;5109908;27;20113;-80
2022/11/12 05:32:14;;;;;;;75.75;22.90;;;;;;;;;;5092315;28;20095;-80
2022/11/12 05:34:41;;;;;;;62.47;22.15;;;;;;;;;;5112273;28;20058;-80
2022/11/12 05:37:11;;;;;;;66.53;22.52;;;;;;;;;;5109402;28;20134;-80
2022/11/12 05:39:37;;;;;;;50.67;21.17;;;;;;;;;;5090044;28;20485;-79
2022/11/12 05:42:03;;;;;;;55.25;22.13;;;;;;;;;;5093356;28;20035;-80
2022/11/12 05:44:29;;;;;;;44.85;21.58;;;;;;;;;;5109665;27;20554;-80
2022/11/12 05:46:55;;;;;;;76.05;22.42;;;;;;;;;;5100996;27;20043;-79
2022/11/12 05:49:21;;;;;;;62.10;24.27;;;;;;;;;;5092528;27;20039;-80
2022/11/12 05:51:47;;;;;;;43.65;20.67;;;;;;;;;;5098882;27;20384;-79
2022/11/12 05:54:13;;;;;;;40.95;21.10;;;;;;;;;;5094574;27;20039;-80
2022/11/12 05:56:39;;;;;;;41.58;21.27;;;;;;;;;;5114274;27;20057;-80
2022/11/12 05:59:07;;;;;;;50.17;22.67;;;;;;;;;;5095051;27;20041;-80
2022/11/12 06:01:37;;;;;;;40.90;22.45;;;;;;;;;;5116825;27;20051;-80
2022/11/12 06:04:03;;;;;;;46.08;25.92;;;;;;;;;;5111751;27;20154;-80
2022/11/12 06:06:29;;;;;;;45.13;24.48;;;;;;;;;;5094182;27;20047;-80
2022/11/12 06:08:55;;;;;;;45.08;24.08;;;;;;;;;;5113001;27;20047;-80
2022/11/12 06:11:21;;;;;;;37.45;22.15;;;;;;;;;;5114191;27;20039;-80
2022/11/12 06:13:47;;;;;;;43.45;23.20;;;;;;;;;;5092919;27;20051;-80
2022/11/12 06:16:13;;;;;;;44.97;24.17;;;;;;;;;;5095551;27;20413;-79
2022/11/12 06:18:39;;;;;;;46.03;24.02;;;;;;;;;;5117279;27;20079;-79
2022/11/12 06:21:19;;;;;;;42.25;22.90;;;;;;;;;;5114709;27;20035;-80
2022/11/12 06:23:52;;;;;;;44.53;24.63;;;;;;;;;;5094381;27;20047;-80
2022/11/12 06:26:19;;;;;;;41.63;23.27;;;;;;;;;;5097697;27;20047;-80
2022/11/12 06:28:45;;;;;;;52.90;25.50;;;;;;;;;;5094981;27;20383;-79
2022/11/12 06:31:11;;;;;;;54.90;26.10;;;;;;;;;;5117000;27;20088;-79
2022/11/12 06:33:37;;;;;;;47.22;24.23;;;;;;;;;;5093303;27;20238;-80
2022/11/12 06:36:05;;;;;;;45.25;26.75;;;;;;;;;;5119614;27;20525;-80
2022/11/12 06:38:35;;;;;;;52.10;28.42;;;;;;;;;;5097450;27;20051;-79
2022/11/12 06:41:01;;;;;;;55.70;29.40;;;;;;;;;;5113054;27;20040;-79
2022/11/12 06:43:28;;;;;;;59.28;30.70;;;;;;;;;;5098448;27;20446;-79
2022/11/12 06:45:57;;;;;;;50.97;29.13;;;;;;;;;;5114214;27;20064;-80
2022/11/12 06:48:23;;;;;;;59.00;30.63;;;;;;;;;;5093353;27;20047;-80
2022/11/12 06:50:49;;;;;;;60.67;30.65;;;;;;;;;;5115921;27;20050;-80
2022/11/12 06:53:15;;;;;;;69.68;31.33;;;;;;;;;;5093979;27;20125;-80
2022/11/12 06:55:41;;;;;;;64.95;31.75;;;;;;;;;;5095533;27;20474;-80
2022/11/12 06:58:07;;;;;;;54.50;30.33;;;;;;;;;;5115043;27;20043;-80
2022/11/12 07:00:33;;;;;;;57.50;31.58;;;;;;;;;;5090602;27;20035;-80
2022/11/12 07:02:59;;;;;;;62.85;34.08;;;;;;;;;;5110462;27;20044;-80
2022/11/12 07:05:25;;;;;;;56.50;32.22;;;;;;;;;;5092929;27;20035;-80
2022/11/12 07:07:51;;;;;;;51.88;28.67;;;;;;;;;;5112290;27;20072;-80
2022/11/12 07:10:17;;;;;;;53.97;30.98;;;;;;;;;;5092953;27;20096;-80
2022/11/12 07:12:43;;;;;;;64.28;32.60;;;;;;;;;;5093785;27;20428;-80
2022/11/12 07:15:12;;;;;;;58.90;30.85;;;;;;;;;;5093296;27;20427;-80
2022/11/12 07:17:38;;;;;;;59.55;31.13;;;;;;;;;;5107805;27;20078;-79
2022/11/12 07:20:04;;;;;;;54.88;30.77;;;;;;;;;;5130097;27;20126;-80
2022/11/12 07:22:33;;;;;;;53.72;30.70;;;;;;;;;;5090881;27;20068;-80
2022/11/12 07:24:59;;;;;;;66.25;31.77;;;;;;;;;;5094229;27;20035;-80
2022/11/12 07:27:25;;;;;;;56.28;30.52;;;;;;;;;;5112708;27;20411;-79
2022/11/12 07:29:51;;;;;;;56.58;30.38;;;;;;;;;;5111530;27;20080;-80
2022/11/12 07:32:17;;;;;;;57.80;30.77;;;;;;;;;;5098231;27;20107;-80
2022/11/12 07:34:43;;;;;;;56.83;31.27;;;;;;;;;;5093248;27;20075;-79
2022/11/12 07:37:09;;;;;;;76.85;33.65;;;;;;;;;;5091366;27;20475;-80
2022/11/12 07:39:35;;;;;;;63.38;32.80;;;;;;;;;;5120408;27;20039;-80
2022/11/12 07:42:01;;;;;;;62.95;33.88;;;;;;;;;;5097895;27;20051;-80
2022/11/12 07:44:27;;;;;;;60.25;31.23;;;;;;;;;;5094998;27;20136;-80
2022/11/12 07:47:02;;;;;;;64.00;32.85;;;;;;;;;;5100372;27;20125;-80
2022/11/12 07:49:28;;;;;;;69.05;32.55;;;;;;;;;;5128024;27;20055;-80
2022/11/12 07:51:54;;;;;;;67.88;30.48;;;;;;;;;;5112110;27;20043;-80
2022/11/12 07:54:20;;;;;;;70.93;31.50;;;;;;;;;;5088867;27;20036;-80
2022/11/12 07:56:46;;;;;;;61.45;30.50;;;;;;;;;;5114093;27;20036;-80
2022/11/12 07:59:12;;;;;;;55.83;30.00;;;;;;;;;;5112410;27;20046;-79
2022/11/12 08:01:39;;;;;;;55.92;29.75;;;;;;;;;;5109266;27;21348;-79
2022/11/12 08:04:06;;;;;;;54.17;28.52;;;;;;;;;;5113503;27;20482;-80
2022/11/12 08:06:33;;;;;;;63.85;28.92;;;;;;;;;;5111806;27;20088;-80
2022/11/12 08:09:00;;;;;;;58.03;26.60;;;;;;;;;;5093554;27;20394;-80
2022/11/12 08:11:26;;;;;;;53.83;26.05;;;;;;;;;;5111836;27;20070;-80
2022/11/12 08:13:52;;;;;;;68.10;27.15;;;;;;;;;;5111401;27;20462;-80
2022/11/12 08:16:19;;;;;;;63.97;26.77;;;;;;;;;;5093125;27;20058;-79
2022/11/12 08:18:45;;;;;;;62.47;26.65;;;;;;;;;;5097512;27;20039;-80
2022/11/12 08:21:15;;;;;;;50.40;26.73;;;;;;;;;;5110100;27;20475;-80
2022/11/12 08:23:41;;;;;;;42.92;25.10;;;;;;;;;;5111770;27;20062;-80
2022/11/12 08:26:08;;;;;;;54.75;25.40;;;;;;;;;;5110392;27;20837;-80
2022/11/12 08:28:35;;;;;;;46.75;24.77;;;;;;;;;;5091326;27;20040;-80
2022/11/12 08:31:06;;;;;;;55.10;25.58;;;;;;;;;;5126092;27;20155;-80
2022/11/12 08:33:32;;;;;;;96.65;26.50;;;;;;;;;;5115565;27;20073;-80
2022/11/12 08:35:59;;;;;;;64.53;24.65;;;;;;;;;;5111929;27;20043;-80
2022/11/12 08:38:25;;;;;;;57.80;24.15;;;;;;;;;;5110839;27;20054;-80
2022/11/12 08:40:51;;;;;;;51.38;23.08;;;;;;;;;;5111885;27;20035;-80
2022/11/12 08:43:17;;;;;;;44.28;23.52;;;;;;;;;;5092767;27;20139;-76
2022/11/12 08:45:43;;;;;;;35.40;21.80;;;;;;;;;;5110095;27;20047;-75
2022/11/12 08:48:12;;;;;;;41.28;21.23;;;;;;;;;;5107989;27;20054;-80
2022/11/12 08:50:38;;;;;;;39.75;23.23;;;;;;;;;;5092620;27;20054;-80
2022/11/12 08:53:06;;;;;;;37.55;19.75;;;;;;;;;;5089617;27;20049;-80
2022/11/12 08:55:33;;;;;;;32.70;20.15;;;;;;;;;;5089804;27;20050;-80
2022/11/12 08:58:02;;;;;;;39.38;21.10;;;;;;;;;;5109334;27;20051;-79
2022/11/12 09:00:29;;;;;;;38.40;21.80;;;;;;;;;;5106856;27;20051;-80
2022/11/12 09:02:55;;;;;;;33.08;21.20;;;;;;;;;;5090814;27;20858;-80
2022/11/12 09:05:21;;;;;;;36.13;21.02;;;;;;;;;;5111353;27;20039;-79
2022/11/12 09:07:50;;;;;;;33.95;21.45;;;;;;;;;;5089676;28;20051;-79
2022/11/12 09:10:16;;;;;;;29.35;20.77;;;;;;;;;;5091117;28;20398;-80
2022/11/12 09:12:42;;;;;;;30.15;20.23;;;;;;;;;;5090798;28;20047;-80
2022/11/12 09:15:08;;;;;;;27.02;19.27;;;;;;;;;;5098940;28;20039;-81
2022/11/12 09:17:34;;;;;;;28.80;18.90;;;;;;;;;;5102498;28;20042;-81
2022/11/12 09:20:00;;;;;;;28.08;18.23;;;;;;;;;;5094787;27;20046;-81
2022/11/12 09:22:26;;;;;;;38.70;18.90;;;;;;;;;;5105954;28;20183;-81
2022/11/12 09:24:52;;;;;;;34.97;23.52;;;;;;;;;;5105497;27;20067;-81
2022/11/12 09:27:18;;;;;;;38.22;19.83;;;;;;;;;;5122059;28;20096;-81
2022/11/12 09:29:44;;;;;;;46.33;19.02;;;;;;;;;;5104483;28;20043;-80
2022/11/12 09:32:10;;;;;;;35.10;20.02;;;;;;;;;;5103916;28;20076;-81
2022/11/12 09:34:36;;;;;;;38.28;20.75;;;;;;;;;;5122669;28;20047;-80
2022/11/12 09:37:02;;;;;;;44.70;22.13;;;;;;;;;;5101058;28;20047;-80
2022/11/12 09:39:28;;;;;;;40.17;22.33;;;;;;;;;;5115807;27;20477;-81
2022/11/12 09:41:54;;;;;;;36.83;21.77;;;;;;;;;;5121658;28;20048;-81
2022/11/12 09:44:23;;;;;;;54.85;22.77;;;;;;;;;;5106046;28;20050;-80
2022/11/12 09:46:54;;;;;;;32.90;21.23;;;;;;;;;;5102236;28;20482;-79
2022/11/12 09:49:23;;;;;;;50.33;23.48;;;;;;;;;;5107584;28;20068;-80
2022/11/12 09:51:50;;;;;;;33.85;21.27;;;;;;;;;;5098511;28;20047;-80
2022/11/12 09:54:16;;;;;;;30.48;22.05;;;;;;;;;;5103781;28;20035;-80
2022/11/12 09:56:43;;;;;;;44.55;22.35;;;;;;;;;;5120642;28;20111;-79
2022/11/12 09:59:12;;;;;;;31.67;22.10;;;;;;;;;;5125204;28;20050;-79
2022/11/12 10:01:38;;;;;;;37.83;22.55;;;;;;;;;;5104943;28;20134;-81
2022/11/12 10:04:28;;;;;;;31.67;21.88;;;;;;;;;;5123486;28;20130;-79
2022/11/12 10:07:03;;;;;;;41.33;22.55;;;;;;;;;;5108106;28;20054;-79
2022/11/12 10:09:38;;;;;;;31.15;22.52;;;;;;;;;;5105054;28;20051;-81
2022/11/12 10:12:30;;;;;;;34.45;22.83;;;;;;;;;;5098624;28;20094;-78
2022/11/12 10:17:54;;;;;;;36.03;21.65;;;;;;;;;;5105633;28;20047;-80
2022/11/12 10:20:25;;;;;;;39.33;23.65;;;;;;;;;;5107877;27;20114;-80
2022/11/12 10:22:53;;;;;;;38.83;26.50;;;;;;;;;;5119760;28;20046;-81
2022/11/12 10:25:20;;;;;;;34.75;23.73;;;;;;;;;;5130134;28;20061;-82
2022/11/12 10:27:48;;;;;;;35.78;23.77;;;;;;;;;;5130049;28;20091;-80
2022/11/12 10:30:21;;;;;;;38.17;25.13;;;;;;;;;;5107825;27;20043;-80
2022/11/12 10:32:48;;;;;;;36.70;23.63;;;;;;;;;;5107041;27;20371;-81
2022/11/12 10:35:16;;;;;;;34.00;24.52;;;;;;;;;;5088610;28;20044;-81
2022/11/12 10:37:58;;;;;;;37.78;24.65;;;;;;;;;;5085910;28;20373;-80
2022/11/12 10:40:32;;;;;;;39.08;25.90;;;;;;;;;;5123034;27;20036;-80
2022/11/12 10:43:02;;;;;;;38.80;25.40;;;;;;;;;;5085934;28;20075;-81
2022/11/12 10:45:29;;;;;;;38.78;26.40;;;;;;;;;;5089061;28;20126;-81
2022/11/12 10:47:55;;;;;;;38.80;26.23;;;;;;;;;;5084675;28;20048;-81
2022/11/12 10:50:40;;;;;;;36.80;25.08;;;;;;;;;;5124425;27;20051;-81
2022/11/12 10:53:09;;;;;;;35.20;24.30;;;;;;;;;;5081762;28;20048;-82
2022/11/12 10:55:37;;;;;;;35.25;24.65;;;;;;;;;;5087648;28;20097;-80
2022/11/12 10:58:12;;;;;;;36.75;24.65;;;;;;;;;;5081698;28;20144;-79
2022/11/12 11:00:56;;;;;;;38.88;24.02;;;;;;;;;;5112307;27;20044;-80
2022/11/12 11:03:28;;;;;;;35.35;25.38;;;;;;;;;;5076202;28;20569;-80
2022/11/12 11:05:54;;;;;;;33.78;24.48;;;;;;;;;;5116890;27;20483;-80
2022/11/12 11:08:41;;;;;;;35.15;24.38;;;;;;;;;;5080216;28;20123;-80
2022/11/12 11:11:16;;;;;;;33.35;24.17;;;;;;;;;;5083362;28;20075;-80
2022/11/12 11:13:46;;;;;;;35.75;24.52;;;;;;;;;;5080791;28;20036;-79
2022/11/12 11:16:19;;;;;;;32.13;24.33;;;;;;;;;;5084350;28;20510;-80
2022/11/12 11:18:47;;;;;;;35.97;25.60;;;;;;;;;;5090728;28;20082;-79
2022/11/12 11:21:39;;;;;;;36.47;24.30;;;;;;;;;;5085232;28;20055;-79
2022/11/12 11:24:17;;;;;;;35.03;24.40;;;;;;;;;;5091238;28;20052;-80
2022/11/12 11:26:58;;;;;;;36.42;25.50;;;;;;;;;;5091017;28;20059;-80
2022/11/12 11:29:43;;;;;;;35.40;24.90;;;;;;;;;;5088003;28;20043;-79
2022/11/12 11:32:44;;;;;;;36.85;26.05;;;;;;;;;;5085297;28;20089;-79
2022/11/12 11:35:18;;;;;;;39.58;25.67;;;;;;;;;;5067313;28;20057;-80
2022/11/12 11:38:03;;;;;;;36.55;25.33;;;;;;;;;;5074164;28;20044;-79
2022/11/12 11:40:52;;;;;;;38.72;25.30;;;;;;;;;;5091664;28;20116;-80
2022/11/12 11:43:57;;;;;;;37.85;26.17;;;;;;;;;;5084186;28;20097;-79
2022/11/12 11:46:29;;;;;;;44.63;28.75;;;;;;;;;;5047511;28;20044;-80
2022/11/12 11:49:16;;;;;;;44.58;29.90;;;;;;;;;;5044710;28;20084;-79
2022/11/12 11:52:00;;;;;;;43.17;29.15;;;;;;;;;;5076964;28;20060;-79
2022/11/12 11:54:46;;;;;;;44.80;29.70;;;;;;;;;;5087673;28;20115;-80
2022/11/12 11:57:16;;;;;;;45.50;30.73;;;;;;;;;;5092500;28;20058;-80
2022/11/12 12:00:00;;;;;;;51.90;33.97;;;;;;;;;;5084285;28;20094;-80
2022/11/12 12:02:46;;;;;;;46.90;32.28;;;;;;;;;;5088160;28;20040;-80
2022/11/12 12:05:28;;;;;;;47.97;32.17;;;;;;;;;;5081418;28;20055;-80
2022/11/12 12:08:02;;;;;;;49.47;32.25;;;;;;;;;;5072916;28;20579;-79
2022/11/12 12:10:40;;;;;;;43.60;30.30;;;;;;;;;;5085896;28;20101;-79
2022/11/12 12:13:24;;;;;;;49.85;31.95;;;;;;;;;;5085341;28;20036;-79
2022/11/12 12:16:10;;;;;;;44.03;29.85;;;;;;;;;;5087330;28;20560;-79
2022/11/12 12:18:51;;;;;;;45.60;32.47;;;;;;;;;;5086476;28;20044;-79
2022/11/12 12:21:20;;;;;;;45.80;31.60;;;;;;;;;;5082830;28;20040;-80
2022/11/12 12:23:46;;;;;;;50.38;31.83;;;;;;;;;;5083654;28;20044;-80
2022/11/12 12:26:15;;;;;;;46.72;32.33;;;;;;;;;;5090433;28;20048;-80
2022/11/12 12:28:44;;;;;;;47.40;33.70;;;;;;;;;;5079318;28;20566;-80
2022/11/12 12:31:20;;;;;;;44.70;31.77;;;;;;;;;;5087272;28;20051;-80
2022/11/12 12:33:52;;;;;;;45.47;33.33;;;;;;;;;;5095440;28;20487;-80
2022/11/12 12:36:33;;;;;;;52.95;37.17;;;;;;;;;;5108684;28;20075;-80
2022/11/12 12:39:18;;;;;;;49.78;34.55;;;;;;;;;;5108774;28;20375;-80
2022/11/12 12:41:54;;;;;;;48.17;33.17;;;;;;;;;;5101435;28;20083;-80
2022/11/12 12:44:58;;;;;;;48.42;33.10;;;;;;;;;;5107153;28;20118;-81
2022/11/12 12:47:09;;;;;;;40.28;30.67;;;;;;;;;;5108751;28;20085;-79
2022/11/12 12:49:36;;;;;;;45.80;32.38;;;;;;;;;;5107731;28;20467;-76
2022/11/12 12:52:02;;;;;;;41.78;30.17;;;;;;;;;;5102113;28;20137;-74
2022/11/12 12:54:34;;;;;;;38.70;29.13;;;;;;;;;;5104395;28;20044;-74
2022/11/12 12:57:01;;;;;;;42.92;30.27;;;;;;;;;;5109846;28;20078;-73
2022/11/12 12:59:27;;;;;;;39.88;29.13;;;;;;;;;;5104759;28;20128;-74
2022/11/12 13:01:56;;;;;;;42.55;31.17;;;;;;;;;;5104038;28;20463;-74
2022/11/12 13:04:41;;;;;;;40.45;29.88;;;;;;;;;;5098108;27;20048;-74
2022/11/12 13:07:07;;;;;;;41.42;30.17;;;;;;;;;;5099768;28;20044;-74
2022/11/12 13:09:33;;;;;;;40.03;29.65;;;;;;;;;;5103569;28;20339;-75
2022/11/12 13:14:30;;;;;;;42.45;30.58;;;;;;;;;;5104635;28;20047;-77
2022/11/12 13:16:56;;;;;;;38.50;30.98;;;;;;;;;;5109800;28;20054;-76
2022/11/12 13:19:29;;;;;;;42.15;31.80;;;;;;;;;;5101779;28;20058;-76
2022/11/12 13:22:14;;;;;;;50.65;37.35;;;;;;;;;;5102024;28;20052;-78
2022/11/12 13:25:01;;;;;;;41.72;30.10;;;;;;;;;;5098984;27;20100;-77
2022/11/12 13:27:40;;;;;;;36.75;29.55;;;;;;;;;;5105053;28;20112;-77
2022/11/12 13:30:12;;;;;;;37.50;28.73;;;;;;;;;;5103128;28;20112;-77
2022/11/12 13:32:43;;;;;;;37.05;28.83;;;;;;;;;;5102638;28;20047;-77
2022/11/12 13:35:15;;;;;;;37.40;29.90;;;;;;;;;;5102713;28;20138;-78
2022/11/12 13:38:01;;;;;;;37.55;29.05;;;;;;;;;;5104450;28;20052;-77
2022/11/12 13:40:46;;;;;;;33.13;26.80;;;;;;;;;;5100871;28;20039;-77
2022/11/12 13:43:16;;;;;;;32.60;25.85;;;;;;;;;;5106633;28;20126;-77
2022/11/12 13:45:59;;;;;;;28.60;24.10;;;;;;;;;;5108135;28;20483;-77
2022/11/12 13:48:33;;;;;;;29.35;25.13;;;;;;;;;;5107531;28;20047;-78
2022/11/12 13:51:05;;;;;;;27.40;23.38;;;;;;;;;;5099277;28;20044;-77
2022/11/12 13:53:32;;;;;;;29.38;25.25;;;;;;;;;;5101224;28;20049;-77
2022/11/12 13:55:58;;;;;;;31.10;26.52;;;;;;;;;;5107673;28;20062;-77
2022/11/12 13:58:32;;;;;;;33.55;27.38;;;;;;;;;;5105241;28;20055;-77
2022/11/12 14:01:03;;;;;;;37.90;30.13;;;;;;;;;;5106175;28;20066;-79
2022/11/12 14:03:31;;;;;;;36.83;29.75;;;;;;;;;;5101908;28;20055;-77
2022/11/12 14:06:05;;;;;;;36.72;30.52;;;;;;;;;;5102144;28;20442;-77
2022/11/12 14:08:30;;;;;;;39.13;32.85;;;;;;;;;;5105363;28;20376;-77
2022/11/12 14:11:03;;;;;;;42.22;33.50;;;;;;;;;;5110772;28;20036;-77
2022/11/12 14:13:51;;;;;;;42.20;34.22;;;;;;;;;;5113493;28;20048;-77
2022/11/12 14:16:23;;;;;;;48.53;36.40;;;;;;;;;;5108657;28;20051;-77
2022/11/12 14:18:55;;;;;;;43.58;33.40;;;;;;;;;;5099720;28;20063;-77
2022/11/12 14:21:21;;;;;;;41.20;32.90;;;;;;;;;;5112163;28;20031;-77
2022/11/12 14:23:48;;;;;;;41.63;32.65;;;;;;;;;;5108645;28;20067;-77
2022/11/12 14:26:32;;;;;;;35.40;30.08;;;;;;;;;;5108931;28;20043;-77
2022/11/12 14:28:58;;;;;;;35.83;30.33;;;;;;;;;;5104633;28;20487;-77
2022/11/12 14:31:25;;;;;;;33.22;28.13;;;;;;;;;;5099706;28;20051;-77
2022/11/12 14:33:51;;;;;;;31.20;26.33;;;;;;;;;;5114132;27;20055;-77
2022/11/12 14:36:18;;;;;;;32.35;27.00;;;;;;;;;;5134257;27;20047;-77
2022/11/12 14:38:46;;;;;;;28.75;24.95;;;;;;;;;;5107756;27;20410;-77
2022/11/12 14:41:19;;;;;;;32.40;27.35;;;;;;;;;;5126976;27;20372;-77
2022/11/12 14:43:47;;;;;;;33.72;28.48;;;;;;;;;;5127213;27;20186;-77
2022/11/12 14:46:31;;;;;;;35.47;29.05;;;;;;;;;;5113005;27;20043;-77
2022/11/12 14:49:14;;;;;;;38.17;30.75;;;;;;;;;;5129718;27;20047;-77
2022/11/12 14:51:47;;;;;;;38.53;30.77;;;;;;;;;;5109595;27;20051;-77
2022/11/12 14:54:21;;;;;;;38.35;30.98;;;;;;;;;;5112468;27;20083;-77
2022/11/12 14:56:48;;;;;;;38.50;30.70;;;;;;;;;;5133360;27;20418;-77